Time;durP1;ratioP1;P1;durP2;ratioP2;P2;SDS_P1;SDS_P2;PMS_P1;PMS_P2;Temp;Humidity;BMP_temperature;BMP_pressure;BME280_temperature;BME280_humidity;BME280_pressure;Samples;Min_cycle;Max_cycle;Signal;HPM_P1;HPM_P2
2022/08/17 04:07:32;;;;;;;48.30;37.13;;;19.40;99.90;;;;;;5049611;28;20546;-66
2022/08/17 04:09:59;;;;;;;52.97;37.20;;;19.30;99.90;;;;;;5049152;28;20120;-66
2022/08/17 04:12:29;;;;;;;50.28;37.70;;;19.30;99.90;;;;;;5050809;28;20041;-66
2022/08/17 04:14:55;;;;;;;49.95;36.67;;;19.30;99.90;;;;;;5049020;28;20045;-66
2022/08/17 04:17:28;;;;;;;55.55;37.30;;;19.40;99.90;;;;;;5050562;28;20040;-66
2022/08/17 04:19:55;;;;;;;49.50;38.28;;;19.60;99.90;;;;;;5049990;28;20049;-66
2022/08/17 04:22:22;;;;;;;51.30;37.28;;;19.60;99.90;;;;;;5051825;28;20041;-66
2022/08/17 04:24:47;;;;;;;48.83;36.42;;;19.70;99.90;;;;;;5052503;28;20041;-66
2022/08/17 04:27:13;;;;;;;52.67;38.08;;;19.70;99.90;;;;;;5054631;28;20494;-66
2022/08/17 04:29:38;;;;;;;50.03;36.40;;;19.70;99.90;;;;;;5053934;28;20041;-66
2022/08/17 04:32:04;;;;;;;53.80;38.33;;;19.60;99.90;;;;;;5053807;28;20033;-66
2022/08/17 04:34:30;;;;;;;52.20;37.80;;;19.50;99.90;;;;;;5053391;28;20037;-66
2022/08/17 04:36:55;;;;;;;53.78;37.85;;;19.50;99.90;;;;;;5053393;28;20116;-66
2022/08/17 04:39:23;;;;;;;49.58;37.03;;;19.50;99.90;;;;;;5053230;28;20040;-66
2022/08/17 04:42:15;;;;;;;49.92;36.67;;;19.40;99.90;;;;;;5053230;28;20299;-66
2022/08/17 04:44:41;;;;;;;56.20;37.60;;;19.40;99.90;;;;;;5053378;28;20383;-66
2022/08/17 04:47:07;;;;;;;52.70;39.55;;;19.40;99.90;;;;;;5054404;28;20076;-66
2022/08/17 04:49:33;;;;;;;52.22;38.03;;;19.40;99.90;;;;;;5052962;28;20481;-66
2022/08/17 04:51:59;;;;;;;53.90;38.42;;;19.40;99.90;;;;;;5054236;28;20045;-66
2022/08/17 04:54:25;;;;;;;59.60;41.20;;;19.40;99.90;;;;;;5053887;28;20196;-66
2022/08/17 04:56:51;;;;;;;50.53;38.40;;;19.40;99.90;;;;;;5054046;28;20051;-66
2022/08/17 04:59:20;;;;;;;58.88;40.75;;;19.40;99.90;;;;;;5053834;28;20040;-66
2022/08/17 05:01:48;;;;;;;55.78;39.22;;;19.40;99.90;;;;;;5054026;28;20048;-66
2022/08/17 05:04:21;;;;;;;54.17;40.88;;;19.40;99.90;;;;;;5053549;28;20040;-66
2022/08/17 05:06:48;;;;;;;56.67;40.13;;;19.40;99.90;;;;;;5053854;28;20044;-66
2022/08/17 05:09:16;;;;;;;59.92;41.88;;;19.40;99.90;;;;;;5053589;28;20418;-66
2022/08/17 05:11:42;;;;;;;57.72;40.67;;;19.40;99.90;;;;;;5053681;28;20044;-66
2022/08/17 05:14:08;;;;;;;55.33;40.28;;;19.50;99.90;;;;;;5053597;28;20037;-66
2022/08/17 05:16:33;;;;;;;60.65;40.28;;;19.50;99.90;;;;;;5053775;28;20052;-66
2022/08/17 05:18:59;;;;;;;58.00;40.78;;;19.50;99.90;;;;;;5053481;28;20457;-66
2022/08/17 05:21:26;;;;;;;52.45;38.75;;;19.50;99.90;;;;;;5053572;28;20037;-66
2022/08/17 05:23:52;;;;;;;53.95;40.35;;;19.50;99.90;;;;;;5053197;28;20041;-66
2022/08/17 05:26:20;;;;;;;56.42;39.40;;;19.50;99.90;;;;;;5053333;28;20044;-66
2022/08/17 05:28:46;;;;;;;56.78;39.40;;;19.50;99.90;;;;;;5053570;28;20047;-66
2022/08/17 05:31:11;;;;;;;50.67;38.83;;;19.50;99.90;;;;;;5053233;28;20116;-66
2022/08/17 05:33:39;;;;;;;56.08;38.25;;;19.50;99.90;;;;;;5052918;28;20033;-66
2022/08/17 05:36:07;;;;;;;55.85;41.17;;;19.50;99.90;;;;;;5053119;28;20074;-66
2022/08/17 05:38:34;;;;;;;55.63;39.35;;;19.50;99.90;;;;;;5053194;28;20183;-66
2022/08/17 05:41:03;;;;;;;55.67;40.10;;;19.60;99.90;;;;;;5053226;28;20041;-66
2022/08/17 05:43:31;;;;;;;51.92;39.00;;;19.50;99.90;;;;;;5053026;28;20082;-66
2022/08/17 05:46:03;;;;;;;55.45;39.58;;;19.50;99.90;;;;;;5053050;28;20037;-66
2022/08/17 05:48:36;;;;;;;56.28;39.95;;;19.50;99.90;;;;;;5053236;28;20044;-66
2022/08/17 05:51:26;;;;;;;57.67;40.83;;;19.50;99.90;;;;;;5053118;28;20045;-66
2022/08/17 05:54:08;;;;;;;61.83;41.92;;;19.50;99.90;;;;;;5052925;28;20045;-66
2022/08/17 05:56:37;;;;;;;;;;;19.60;99.90;;;;;;5053507;28;20143;-66
2022/08/17 05:59:37;;;;;;;55.88;40.13;;;19.50;99.90;;;;;;5052872;28;19959;-66
2022/08/17 06:02:19;;;;;;;54.90;39.58;;;19.50;99.90;;;;;;5049705;28;20079;-66
2022/08/17 06:05:27;;;;;;;61.55;42.33;;;19.50;99.90;;;;;;5052496;28;20402;-66
2022/08/17 06:08:05;;;;;;;60.80;40.67;;;19.60;99.90;;;;;;5052665;28;20474;-66
2022/08/17 06:10:31;;;;;;;58.65;41.10;;;19.60;99.90;;;;;;5052615;28;20110;-65
2022/08/17 06:13:30;;;;;;;58.17;40.88;;;19.60;99.90;;;;;;5051559;28;20045;-65
2022/08/17 06:16:00;;;;;;;59.47;40.38;;;19.60;99.90;;;;;;5052338;28;20037;-65
2022/08/17 06:18:34;;;;;;;60.63;42.97;;;19.60;99.90;;;;;;5052442;28;20041;-65
2022/08/17 06:21:03;;;;;;;55.85;39.40;;;19.60;99.90;;;;;;5052746;28;20041;-66
2022/08/17 06:24:06;;;;;;;58.05;41.85;;;19.60;99.90;;;;;;5052499;28;20041;-66
2022/08/17 06:26:36;;;;;;;55.65;39.53;;;19.60;99.90;;;;;;5040083;28;20486;-66
2022/08/17 06:29:09;;;;;;;57.75;40.53;;;19.60;99.90;;;;;;5051186;28;20072;-66
2022/08/17 06:31:37;;;;;;;54.70;39.28;;;19.60;99.90;;;;;;5052496;28;20126;-66
2022/08/17 06:34:05;;;;;;;59.10;41.70;;;19.70;99.90;;;;;;5051848;28;20406;-65
2022/08/17 06:36:59;;;;;;;55.30;40.05;;;19.70;99.90;;;;;;5052204;28;20449;-66
2022/08/17 06:39:47;;;;;;;52.55;37.50;;;19.70;99.90;;;;;;5052204;28;20052;-66
2022/08/17 06:42:18;;;;;;;51.72;36.47;;;19.70;99.90;;;;;;5023574;28;20034;-66
2022/08/17 06:44:56;;;;;;;51.53;38.30;;;19.70;99.90;;;;;;5011003;28;20085;-66
2022/08/17 06:47:28;;;;;;;49.28;37.97;;;19.70;99.90;;;;;;5012188;28;20084;-66
2022/08/17 06:50:04;;;;;;;55.30;37.60;;;19.80;99.90;;;;;;5012282;28;20057;-66
2022/08/17 06:52:40;;;;;;;55.65;38.50;;;19.80;99.90;;;;;;5011181;28;20053;-66
2022/08/17 06:55:19;;;;;;;51.42;38.75;;;19.80;99.90;;;;;;5011953;28;20088;-66
2022/08/17 06:57:51;;;;;;;50.88;38.63;;;19.70;99.90;;;;;;5012064;28;20046;-66
2022/08/17 07:00:19;;;;;;;;;;;19.80;99.90;;;;;;5012654;28;20050;-66
2022/08/17 07:03:05;;;;;;;54.97;38.60;;;19.80;99.90;;;;;;5011847;28;19917;-66
2022/08/17 07:05:53;;;;;;;53.42;37.92;;;19.80;99.90;;;;;;5014048;28;20060;-66
2022/08/17 07:08:32;;;;;;;55.85;38.15;;;19.90;99.90;;;;;;5021612;28;20380;-66
2022/08/17 07:11:07;;;;;;;54.63;38.35;;;20.00;99.90;;;;;;5020813;28;20041;-66
2022/08/17 07:13:35;;;;;;;57.92;37.22;;;20.20;99.90;;;;;;5012388;28;20130;-66
2022/08/17 07:16:15;;;;;;;50.92;37.78;;;20.10;99.90;;;;;;5011693;28;20037;-66
2022/08/17 07:18:42;;;;;;;50.88;37.30;;;20.10;99.90;;;;;;5011597;28;20439;-66
2022/08/17 07:21:22;;;;;;;46.83;36.90;;;20.10;99.90;;;;;;5011860;28;20053;-66
2022/08/17 07:24:19;;;;;;;52.03;36.42;;;20.20;99.90;;;;;;5011396;28;20057;-65
2022/08/17 07:26:48;;;;;;;48.78;34.50;;;20.30;99.90;;;;;;5018990;28;20089;-66
2022/08/17 07:29:17;;;;;;;47.38;35.10;;;20.40;99.90;;;;;;5011512;28;20049;-66
2022/08/17 07:31:43;;;;;;;42.97;31.95;;;20.40;99.90;;;;;;5012213;28;20117;-66
2022/08/17 07:34:14;;;;;;;44.20;32.63;;;20.40;99.90;;;;;;5012242;28;20046;-66
2022/08/17 07:36:40;;;;;;;44.40;32.33;;;20.50;99.90;;;;;;5011866;28;20046;-66
2022/08/17 07:39:07;;;;;;;44.63;34.13;;;20.50;99.90;;;;;;5011653;28;20044;-66
2022/08/17 07:41:40;;;;;;;42.38;32.15;;;20.60;99.90;;;;;;5011488;28;20465;-66
2022/08/17 07:44:12;;;;;;;46.50;32.08;;;20.70;99.90;;;;;;5011360;28;20041;-66
2022/08/17 07:49:37;;;;;;;43.17;29.45;;;20.80;99.90;;;;;;5011378;28;20126;-66
2022/08/17 07:52:30;;;;;;;39.28;28.67;;;20.80;99.90;;;;;;5011277;28;20041;-66
2022/08/17 07:54:57;;;;;;;38.38;29.02;;;21.10;99.90;;;;;;5010824;28;20053;-66
2022/08/17 07:57:33;;;;;;;43.30;29.27;;;21.10;99.90;;;;;;5014181;28;20038;-66
2022/08/17 07:59:59;;;;;;;42.20;31.30;;;21.30;99.90;;;;;;5026838;28;20053;-66
2022/08/17 08:02:33;;;;;;;43.25;30.58;;;21.20;99.90;;;;;;5030651;28;20071;-66
2022/08/17 08:05:11;;;;;;;42.17;30.92;;;21.00;99.90;;;;;;5030223;28;20045;-66
2022/08/17 08:07:58;;;;;;;40.03;30.90;;;21.10;99.90;;;;;;5011243;28;20034;-66
2022/08/17 08:10:41;;;;;;;38.20;29.77;;;21.10;99.90;;;;;;5010936;28;20048;-66
2022/08/17 08:13:22;;;;;;;42.67;31.33;;;21.10;99.90;;;;;;5010989;28;20088;-66
2022/08/17 08:15:55;;;;;;;39.37;29.63;;;21.10;99.90;;;;;;5009681;28;20057;-66
2022/08/17 08:18:34;;;;;;;40.60;30.15;;;21.30;99.90;;;;;;5013818;28;20044;-66
2022/08/17 08:21:10;;;;;;;37.83;28.33;;;21.40;99.90;;;;;;5022146;28;20095;-66
2022/08/17 08:23:35;;;;;;;38.33;27.60;;;21.40;99.90;;;;;;5017039;28;20037;-66
2022/08/17 08:26:13;;;;;;;33.70;25.83;;;21.50;99.90;;;;;;5021382;28;20540;-66
2022/08/17 08:28:51;;;;;;;35.15;27.63;;;21.60;99.90;;;;;;5023735;28;20127;-66
2022/08/17 08:31:57;;;;;;;34.67;26.52;;;21.60;99.90;;;;;;5019618;28;20479;-66
2022/08/17 08:34:47;;;;;;;41.17;28.48;;;21.70;99.90;;;;;;5021024;28;20046;-67
2022/08/17 08:37:32;;;;;;;35.40;28.25;;;21.70;99.90;;;;;;5019673;28;20128;-66
2022/08/17 08:40:35;;;;;;;37.47;27.00;;;21.70;99.90;;;;;;5018156;28;20060;-66
2022/08/17 08:43:25;;;;;;;33.97;27.60;;;21.70;99.90;;;;;;5022488;28;20049;-66
2022/08/17 08:46:12;;;;;;;37.42;27.10;;;21.60;99.90;;;;;;5030515;28;20041;-67
2022/08/17 08:48:46;;;;;;;35.17;27.25;;;21.60;99.90;;;;;;5030231;28;20399;-67
2022/08/17 08:51:34;;;;;;;36.17;27.33;;;21.60;99.90;;;;;;5030601;28;20044;-67
2022/08/17 08:54:13;;;;;;;37.22;27.50;;;21.70;99.90;;;;;;5030113;28;20037;-66
2022/08/17 08:57:02;;;;;;;39.00;27.33;;;21.70;99.90;;;;;;5030461;28;20080;-66
2022/08/17 08:59:55;;;;;;;33.97;27.13;;;21.70;99.90;;;;;;5030634;28;20091;-66
2022/08/17 09:02:42;;;;;;;35.22;27.83;;;21.80;99.90;;;;;;5030581;28;20042;-66
2022/08/17 09:05:28;;;;;;;36.55;25.60;;;21.80;99.90;;;;;;5029946;28;20056;-66
2022/08/17 09:08:17;;;;;;;33.70;23.85;;;21.80;99.90;;;;;;5032643;28;20048;-66
2022/08/17 09:11:02;;;;;;;36.42;25.48;;;21.90;99.90;;;;;;5033847;28;20049;-66
2022/08/17 09:13:37;;;;;;;32.47;25.02;;;22.00;99.90;;;;;;5033854;28;20403;-66
2022/08/17 09:16:29;;;;;;;30.67;24.42;;;22.00;99.90;;;;;;5033780;28;20115;-66
2022/08/17 09:18:57;;;;;;;;;;;22.00;99.90;;;;;;5032896;28;20052;-67
2022/08/17 09:21:42;;;;;;;31.23;23.90;;;22.00;99.90;;;;;;5016081;28;19921;-67
2022/08/17 09:24:34;;;;;;;30.05;24.20;;;22.00;99.90;;;;;;5032090;28;20054;-66
2022/08/17 09:27:20;;;;;;;32.10;24.75;;;22.10;99.90;;;;;;5033924;28;20053;-66
2022/08/17 09:29:57;;;;;;;29.92;23.73;;;22.10;99.90;;;;;;5033578;28;20487;-66
2022/08/17 09:32:38;;;;;;;26.98;23.50;;;22.10;99.90;;;;;;5033899;28;20442;-66
2022/08/17 09:35:23;;;;;;;28.67;22.98;;;22.20;99.90;;;;;;5033204;28;20494;-66
2022/08/17 09:37:55;;;;;;;32.60;23.52;;;22.20;99.90;;;;;;5033594;28;20132;-67
2022/08/17 09:40:31;;;;;;;26.80;22.55;;;22.30;99.90;;;;;;5032355;28;20569;-66
2022/08/17 09:43:26;;;;;;;29.77;22.20;;;22.30;99.90;;;;;;5033402;28;20521;-67
2022/08/17 09:46:01;;;;;;;25.77;21.30;;;22.40;99.90;;;;;;5033065;28;20045;-66
2022/08/17 09:48:54;;;;;;;24.65;20.60;;;22.50;99.90;;;;;;5032185;28;20121;-66
2022/08/17 09:51:40;;;;;;;27.83;20.90;;;22.50;99.90;;;;;;5033279;28;20044;-67
2022/08/17 09:54:37;;;;;;;27.35;20.70;;;22.50;99.90;;;;;;5033011;28;20042;-66
2022/08/17 09:57:22;;;;;;;27.00;19.80;;;22.60;99.90;;;;;;5031721;28;20058;-67
2022/08/17 09:59:59;;;;;;;23.92;18.80;;;22.60;99.90;;;;;;5032916;28;20045;-66
2022/08/17 10:02:39;;;;;;;24.10;18.70;;;22.60;99.90;;;;;;5031729;28;20056;-66
2022/08/17 10:05:36;;;;;;;22.00;18.17;;;22.60;99.90;;;;;;5031244;28;20041;-66
2022/08/17 10:08:26;;;;;;;24.10;17.75;;;22.60;99.90;;;;;;5026842;28;20061;-66
2022/08/17 10:11:12;;;;;;;21.23;17.15;;;22.70;99.90;;;;;;5032851;28;20588;-66
2022/08/17 10:13:56;;;;;;;23.77;18.17;;;22.70;99.90;;;;;;5032802;28;20040;-66
2022/08/17 10:16:26;;;;;;;22.52;17.25;;;22.70;99.90;;;;;;5015136;28;20514;-66
2022/08/17 10:18:58;;;;;;;20.23;16.70;;;22.70;99.90;;;;;;5032640;28;20048;-66
2022/08/17 10:27:16;;;;;;;22.45;19.13;;;22.90;99.90;;;;;;5032765;28;20124;-66
2022/08/17 10:30:00;;;;;;;22.33;19.17;;;22.90;99.90;;;;;;5032558;28;20470;-65
2022/08/17 10:32:31;;;;;;;24.80;18.58;;;22.90;99.90;;;;;;5032356;28;20107;-66
2022/08/17 10:35:32;;;;;;;24.33;18.73;;;23.00;99.90;;;;;;5032124;28;20045;-66
2022/08/17 10:38:24;;;;;;;27.70;19.23;;;23.10;99.90;;;;;;5032392;28;20495;-66
2022/08/17 10:41:23;;;;;;;25.95;19.85;;;23.20;99.90;;;;;;5014679;28;20442;-66
2022/08/17 10:44:10;;;;;;;27.35;20.08;;;23.20;99.90;;;;;;5024596;28;20049;-65
2022/08/17 10:46:58;;;;;;;23.17;18.77;;;23.20;99.90;;;;;;5023351;28;20057;-66
2022/08/17 10:49:36;;;;;;;25.85;21.08;;;23.20;99.90;;;;;;5021544;28;20521;-66
2022/08/17 10:52:21;;;;;;;23.23;19.02;;;23.30;99.90;;;;;;5022979;28;20179;-65
2022/08/17 10:55:04;;;;;;;23.95;20.27;;;23.50;99.90;;;;;;5031518;28;20132;-66
2022/08/17 10:57:33;;;;;;;26.42;20.10;;;23.60;99.90;;;;;;5030819;28;20573;-66
2022/08/17 11:00:14;;;;;;;24.20;19.38;;;23.50;99.90;;;;;;5032115;28;20132;-65
2022/08/17 11:02:50;;;;;;;27.83;21.58;;;23.60;99.90;;;;;;5030769;28;20080;-66
2022/08/17 11:05:44;;;;;;;27.42;19.90;;;23.50;99.90;;;;;;5031638;28;20474;-66
2022/08/17 11:08:35;;;;;;;26.95;21.25;;;23.60;99.90;;;;;;5032035;28;20041;-65
2022/08/17 11:11:34;;;;;;;29.02;19.52;;;23.60;99.90;;;;;;5026052;28;20037;-65
2022/08/17 11:14:34;;;;;;;25.95;19.50;;;23.60;99.90;;;;;;5022150;28;20050;-65
2022/08/17 11:17:22;;;;;;;28.80;22.67;;;23.70;99.90;;;;;;5026104;28;20052;-66
2022/08/17 11:20:11;;;;;;;36.05;22.27;;;23.70;99.90;;;;;;5029135;28;20052;-66
2022/08/17 11:22:57;;;;;;;33.22;23.63;;;23.70;99.90;;;;;;5029898;28;20077;-66
2022/08/17 11:25:51;;;;;;;35.45;24.40;;;23.60;99.90;;;;;;5029851;28;20052;-66
2022/08/17 11:28:20;;;;;;;34.13;24.60;;;23.60;99.90;;;;;;5032756;28;20073;-66
2022/08/17 11:31:00;;;;;;;39.22;23.98;;;23.50;99.90;;;;;;5031622;28;20041;-66
2022/08/17 11:33:28;;;;;;;38.28;25.65;;;23.60;99.90;;;;;;5031944;28;20048;-66
2022/08/17 11:36:11;;;;;;;43.33;25.65;;;23.50;99.90;;;;;;5031789;28;20053;-67
2022/08/17 11:39:14;;;;;;;35.95;25.58;;;23.50;99.90;;;;;;5031537;28;20041;-66
2022/08/17 11:41:52;;;;;;;;;;;23.60;99.90;;;;;;5031910;28;20564;-67
2022/08/17 11:44:39;;;;;;;35.10;26.48;;;23.50;99.90;;;;;;5014071;28;19979;-66
2022/08/17 11:53:37;;;;;;;35.63;26.90;;;23.50;99.90;;;;;;5031097;28;20048;-66
2022/08/17 11:56:08;;;;;;;41.47;29.13;;;23.50;99.90;;;;;;5030604;28;20503;-66
2022/08/17 11:58:42;;;;;;;41.80;28.02;;;23.60;99.90;;;;;;5031115;28;20046;-66
2022/08/17 12:01:32;;;;;;;47.38;27.25;;;23.50;99.90;;;;;;5031097;28;20045;-66
2022/08/17 12:04:25;;;;;;;45.30;26.92;;;23.50;99.90;;;;;;5030536;28;20452;-66
2022/08/17 12:07:16;;;;;;;32.17;25.40;;;23.60;99.90;;;;;;5031278;28;20037;-66
2022/08/17 12:09:45;;;;;;;48.08;28.90;;;23.60;99.90;;;;;;5030845;28;20048;-66
2022/08/17 12:12:28;;;;;;;42.38;28.45;;;23.60;99.90;;;;;;5029671;28;20146;-66
2022/08/17 12:14:58;;;;;;;45.83;29.92;;;23.60;99.90;;;;;;5029308;28;20045;-66
2022/08/17 12:17:27;;;;;;;42.17;29.27;;;23.60;99.90;;;;;;5030989;28;20049;-66
2022/08/17 12:19:54;;;;;;;45.42;29.77;;;23.60;99.90;;;;;;5029342;28;20053;-66
2022/08/17 12:22:53;;;;;;;39.88;29.80;;;23.70;99.90;;;;;;5030896;28;20045;-66
2022/08/17 12:25:22;;;;;;;43.70;31.63;;;23.70;99.90;;;;;;5030531;28;20431;-66
2022/08/17 12:27:49;;;;;;;44.83;30.77;;;23.70;99.90;;;;;;5030955;28;20438;-66
2022/08/17 12:30:19;;;;;;;50.58;32.58;;;23.70;99.90;;;;;;5030689;28;20041;-66
2022/08/17 12:32:48;;;;;;;55.65;36.22;;;23.70;99.90;;;;;;5030754;28;20550;-66
2022/08/17 12:35:28;;;;;;;64.00;35.38;;;23.60;99.90;;;;;;5030359;28;20087;-66
2022/08/17 12:37:56;;;;;;;46.95;33.83;;;23.60;99.90;;;;;;5030854;28;20045;-66
2022/08/17 12:40:26;;;;;;;49.53;36.45;;;23.60;99.90;;;;;;5030594;28;20045;-66
2022/08/17 12:43:00;;;;;;;51.30;35.42;;;23.60;99.90;;;;;;5034648;28;20116;-66
2022/08/17 12:45:35;;;;;;;53.28;36.08;;;23.60;99.90;;;;;;5034156;28;20048;-65
2022/08/17 12:48:05;;;;;;;52.67;35.97;;;23.60;99.90;;;;;;5034440;28;20460;-66
2022/08/17 12:50:31;;;;;;;55.20;35.85;;;23.60;99.90;;;;;;5034574;28;20103;-66
2022/08/17 12:52:58;;;;;;;51.67;34.53;;;23.60;99.90;;;;;;5034482;28;20029;-66
2022/08/17 12:55:25;;;;;;;49.95;36.47;;;23.70;99.90;;;;;;5034040;28;20068;-66
2022/08/17 12:57:53;;;;;;;52.65;34.83;;;23.80;99.90;;;;;;5034200;28;20558;-66
2022/08/17 13:00:39;;;;;;;51.20;36.00;;;23.70;99.90;;;;;;5034165;28;20045;-66
2022/08/17 13:03:11;;;;;;;54.33;37.85;;;23.70;99.90;;;;;;5034293;28;20047;-65
2022/08/17 13:05:40;;;;;;;52.55;36.85;;;23.80;99.90;;;;;;5032497;28;20052;-66
2022/08/17 13:08:16;;;;;;;49.58;36.90;;;23.80;99.90;;;;;;5034070;28;20107;-66
2022/08/17 13:10:42;;;;;;;53.47;36.50;;;23.80;99.90;;;;;;5033892;28;20033;-66
2022/08/17 13:13:27;;;;;;;57.88;37.88;;;23.80;99.90;;;;;;5033874;28;20083;-66
2022/08/17 13:15:57;;;;;;;50.05;37.42;;;23.80;99.90;;;;;;5033774;28;20095;-66
2022/08/17 13:18:41;;;;;;;53.92;37.95;;;23.80;99.90;;;;;;5033937;28;20049;-66
2022/08/17 13:21:26;;;;;;;55.80;37.95;;;23.80;99.90;;;;;;5030547;28;20047;-66
2022/08/17 13:24:10;;;;;;;71.72;37.70;;;23.80;99.90;;;;;;5033568;28;20069;-65
2022/08/17 13:26:53;;;;;;;57.65;42.35;;;23.80;99.90;;;;;;5033755;28;20045;-65
2022/08/17 13:29:27;;;;;;;58.80;41.88;;;23.80;99.90;;;;;;5033737;28;20046;-65
2022/08/17 13:32:09;;;;;;;61.45;41.58;;;23.70;99.90;;;;;;5033621;28;20048;-65
2022/08/17 13:34:39;;;;;;;65.28;40.20;;;23.70;99.90;;;;;;5029677;28;20042;-65
2022/08/17 13:37:31;;;;;;;58.97;41.50;;;23.70;99.90;;;;;;5016432;28;20042;-65
2022/08/17 13:40:09;;;;;;;62.78;42.85;;;23.60;99.90;;;;;;5012196;28;20085;-66
2022/08/17 13:42:52;;;;;;;61.33;42.50;;;23.60;99.90;;;;;;5013920;28;20046;-66
2022/08/17 13:45:30;;;;;;;57.78;42.28;;;23.70;99.90;;;;;;5013469;28;20037;-66
2022/08/17 13:48:07;;;;;;;56.17;40.70;;;23.60;99.90;;;;;;5013546;28;20484;-66
2022/08/17 13:50:39;;;;;;;58.30;39.63;;;23.60;99.90;;;;;;5013373;28;20049;-66
2022/08/17 13:53:25;;;;;;;58.67;40.65;;;23.60;99.90;;;;;;5013023;28;20042;-66
2022/08/17 13:55:54;;;;;;;54.03;39.17;;;23.60;99.90;;;;;;5013154;28;20519;-66
2022/08/17 13:58:26;;;;;;;58.00;40.53;;;23.50;99.90;;;;;;5013523;28;20062;-66
2022/08/17 14:00:52;;;;;;;58.42;41.55;;;23.50;99.90;;;;;;5013254;28;20042;-67
2022/08/17 14:03:19;;;;;;;51.00;40.33;;;23.50;99.90;;;;;;5013336;28;20044;-66
2022/08/17 14:05:45;;;;;;;54.92;42.25;;;23.50;99.90;;;;;;5013292;28;20419;-66
2022/08/17 14:08:13;;;;;;;56.85;42.15;;;23.40;99.90;;;;;;5013207;28;20045;-66
2022/08/17 14:10:38;;;;;;;55.22;40.13;;;23.50;99.90;;;;;;5012963;28;20042;-66
2022/08/17 14:13:06;;;;;;;53.33;39.60;;;23.50;99.90;;;;;;5013215;28;20088;-66
2022/08/17 14:15:32;;;;;;;49.65;38.88;;;23.50;99.90;;;;;;5012726;28;20088;-66
2022/08/17 14:17:58;;;;;;;49.65;37.65;;;23.50;99.90;;;;;;5013005;28;20077;-66
2022/08/17 14:20:24;;;;;;;55.88;40.45;;;23.40;99.90;;;;;;5013140;28;20088;-66
2022/08/17 14:22:52;;;;;;;55.92;40.85;;;23.50;99.90;;;;;;5013054;28;20069;-66
2022/08/17 14:25:22;;;;;;;52.30;37.65;;;23.40;99.90;;;;;;5012490;28;20087;-66
2022/08/17 14:27:49;;;;;;;50.58;38.55;;;23.40;99.90;;;;;;5012794;28;20042;-66
2022/08/17 14:30:16;;;;;;;52.45;38.33;;;23.30;99.90;;;;;;5012917;28;20069;-66
2022/08/17 14:32:42;;;;;;;47.42;38.80;;;23.30;99.90;;;;;;5013020;28;20072;-66
2022/08/17 14:35:11;;;;;;;54.88;40.30;;;23.30;99.90;;;;;;5011118;28;20049;-66
2022/08/17 14:37:37;;;;;;;51.50;37.58;;;23.30;99.90;;;;;;5012640;28;20101;-66
2022/08/17 14:40:10;;;;;;;46.33;36.75;;;23.30;99.90;;;;;;5012585;28;20081;-66
2022/08/17 14:42:37;;;;;;;51.35;38.17;;;23.30;99.90;;;;;;5012551;28;20121;-66
2022/08/17 14:45:06;;;;;;;54.60;39.33;;;23.30;99.90;;;;;;5012356;28;20082;-66
2022/08/17 14:47:33;;;;;;;47.92;37.72;;;23.20;99.90;;;;;;5012474;28;20553;-66
2022/08/17 14:50:00;;;;;;;53.15;38.65;;;23.20;99.90;;;;;;5012442;28;20088;-66
2022/08/17 14:52:27;;;;;;;53.05;38.60;;;23.10;99.90;;;;;;5012491;28;20042;-66
2022/08/17 14:54:52;;;;;;;48.42;39.83;;;23.10;99.90;;;;;;5012138;28;20107;-66
2022/08/17 14:57:20;;;;;;;53.63;39.10;;;23.10;99.90;;;;;;5012323;28;20079;-66
2022/08/17 14:59:46;;;;;;;50.08;37.83;;;23.10;99.90;;;;;;5012383;28;20034;-66
2022/08/17 15:02:12;;;;;;;51.45;37.90;;;23.10;99.90;;;;;;5012192;28;20041;-66
2022/08/17 15:04:38;;;;;;;51.75;39.22;;;23.10;99.90;;;;;;5010988;28;20042;-66
2022/08/17 15:07:05;;;;;;;50.38;37.75;;;23.00;99.90;;;;;;5012141;28;20694;-66
2022/08/17 15:09:31;;;;;;;52.97;38.17;;;23.00;99.90;;;;;;5011974;28;20057;-66
2022/08/17 15:11:59;;;;;;;49.40;38.53;;;22.90;99.90;;;;;;5012299;28;20045;-66
2022/08/17 15:14:25;;;;;;;51.15;37.22;;;22.80;99.90;;;;;;5011879;28;20053;-66
2022/08/17 15:16:50;;;;;;;51.55;37.63;;;22.80;99.90;;;;;;5012082;28;20046;-66
2022/08/17 15:19:16;;;;;;;50.83;38.50;;;22.80;99.90;;;;;;5010558;28;20052;-66
2022/08/17 15:21:42;;;;;;;53.25;40.00;;;22.70;99.90;;;;;;5010518;28;20045;-66
2022/08/17 15:24:08;;;;;;;28.58;22.15;;;22.60;99.90;;;;;;5011405;28;20165;-66
2022/08/17 15:26:34;;;;;;;18.90;14.23;;;22.30;99.90;;;;;;5010744;28;20559;-66
2022/08/17 15:28:59;;;;;;;13.13;8.07;;;22.10;99.90;;;;;;5011849;28;20044;-66
2022/08/17 15:31:26;;;;;;;15.00;7.05;;;21.70;99.90;;;;;;5011785;28;20484;-68
2022/08/17 15:33:52;;;;;;;18.38;5.38;;;21.40;99.90;;;;;;5009804;28;20393;-69
2022/08/17 15:36:18;;;;;;;16.30;5.80;;;21.20;99.90;;;;;;5010309;28;20046;-65
2022/08/17 15:38:44;;;;;;;11.40;5.82;;;21.20;99.90;;;;;;5013217;28;20056;-67
2022/08/17 15:41:14;;;;;;;16.40;7.20;;;21.20;99.90;;;;;;5013510;28;20045;-66
2022/08/17 15:43:41;;;;;;;8.40;5.20;;;21.20;99.90;;;;;;5012848;28;20056;-66
2022/08/17 15:46:11;;;;;;;7.35;5.60;;;21.00;99.90;;;;;;5011534;28;20053;-66
2022/08/17 15:48:42;;;;;;;8.30;5.07;;;20.80;99.90;;;;;;5011629;28;20037;-67
2022/08/17 15:51:10;;;;;;;9.50;5.28;;;21.00;99.90;;;;;;5011585;28;20040;-68
2022/08/17 15:53:37;;;;;;;6.95;4.95;;;21.00;99.90;;;;;;5011455;28;20656;-68
2022/08/17 15:56:04;;;;;;;9.02;5.13;;;21.10;99.90;;;;;;5009771;28;20046;-68
2022/08/17 15:58:33;;;;;;;9.25;5.22;;;21.20;99.90;;;;;;5011428;28;20088;-68
2022/08/17 16:01:01;;;;;;;6.82;5.25;;;21.00;99.90;;;;;;5010301;28;20419;-69
2022/08/17 16:03:28;;;;;;;7.97;5.70;;;21.00;99.90;;;;;;5011268;28;20080;-69
2022/08/17 16:05:53;;;;;;;11.68;6.05;;;21.20;99.90;;;;;;5009561;28;20558;-68
2022/08/17 16:08:19;;;;;;;9.75;5.93;;;21.20;99.90;;;;;;5009640;28;20038;-69
2022/08/17 16:10:44;;;;;;;23.08;7.97;;;21.10;99.90;;;;;;5009771;28;20539;-68
2022/08/17 16:13:10;;;;;;;13.52;7.55;;;21.10;99.90;;;;;;5011318;28;20458;-67
2022/08/17 16:15:36;;;;;;;14.50;7.85;;;21.10;99.90;;;;;;5013185;28;20483;-68
2022/08/17 16:18:03;;;;;;;12.80;7.03;;;21.10;99.90;;;;;;5019700;28;20411;-67
2022/08/17 16:20:29;;;;;;;10.98;6.63;;;21.10;99.90;;;;;;5019430;28;20072;-67
2022/08/17 16:22:55;;;;;;;10.88;6.88;;;21.20;99.90;;;;;;5021377;28;20045;-68
2022/08/17 16:25:25;;;;;;;8.30;6.35;;;21.10;99.90;;;;;;5019033;28;20038;-68
2022/08/17 16:27:52;;;;;;;10.13;6.40;;;21.00;99.90;;;;;;5019429;28;20114;-68
2022/08/17 16:30:19;;;;;;;8.50;6.30;;;21.10;99.90;;;;;;5020774;28;20048;-69
2022/08/17 16:32:45;;;;;;;9.23;6.45;;;20.90;99.90;;;;;;5019206;28;20591;-69
2022/08/17 16:35:14;;;;;;;10.65;5.97;;;20.90;99.90;;;;;;5017954;28;20038;-69
2022/08/17 16:37:40;;;;;;;8.68;6.28;;;20.90;99.90;;;;;;5020278;28;20061;-69
2022/08/17 16:40:07;;;;;;;6.95;5.70;;;20.90;99.90;;;;;;5020069;28;20155;-69
2022/08/17 16:42:35;;;;;;;8.40;5.90;;;20.90;99.90;;;;;;5017915;28;20038;-69
2022/08/17 16:45:04;;;;;;;8.73;5.72;;;20.80;99.90;;;;;;5019823;28;20077;-69
2022/08/17 16:47:29;;;;;;;10.00;6.53;;;20.70;99.90;;;;;;5021174;28;20044;-69
2022/08/17 16:49:55;;;;;;;10.25;6.18;;;20.60;99.90;;;;;;5015820;28;20121;-69
2022/08/17 16:52:26;;;;;;;9.18;6.93;;;20.50;99.90;;;;;;5016082;28;20048;-69
2022/08/17 16:54:54;;;;;;;8.77;6.85;;;20.40;99.90;;;;;;5025918;28;20049;-69
2022/08/17 16:57:21;;;;;;;8.65;7.00;;;20.40;99.90;;;;;;5025306;28;20046;-69
2022/08/17 16:59:49;;;;;;;12.32;8.40;;;20.50;99.90;;;;;;5026307;28;20121;-69
2022/08/17 17:02:23;;;;;;;13.93;8.90;;;20.60;99.90;;;;;;5011861;28;20050;-69
2022/08/17 17:04:53;;;;;;;10.13;8.45;;;20.50;99.90;;;;;;5009585;28;20089;-69
2022/08/17 17:07:34;;;;;;;13.15;10.05;;;20.50;99.90;;;;;;5015351;28;20065;-68
2022/08/17 17:10:14;;;;;;;12.65;10.27;;;20.40;99.90;;;;;;5017888;28;20044;-69
2022/08/17 17:12:40;;;;;;;12.70;9.35;;;20.40;99.90;;;;;;5012579;28;20045;-68
2022/08/17 17:15:06;;;;;;;10.32;9.23;;;20.40;99.90;;;;;;5010256;28;20092;-67
2022/08/17 17:17:35;;;;;;;14.00;10.52;;;20.40;99.90;;;;;;5012182;28;20052;-67
2022/08/17 17:20:17;;;;;;;10.25;9.15;;;20.40;99.90;;;;;;5010243;28;20038;-67
2022/08/17 17:22:53;;;;;;;9.88;8.88;;;20.30;99.90;;;;;;5014937;28;20053;-68
2022/08/17 17:25:47;;;;;;;9.85;8.85;;;20.40;99.90;;;;;;5012088;28;20092;-67
2022/08/17 17:28:55;;;;;;;11.75;9.07;;;20.40;99.90;;;;;;5020818;28;20056;-67
2022/08/17 17:31:29;;;;;;;10.18;8.27;;;20.30;99.90;;;;;;5011538;28;20049;-67